Orangeburg Municipal Airport
KOGB : now visible

Airfield :











YOU CAN JOIN US ON...

 
LOGIN :

Register | Disclaimer

   EN    FR    IT 

 









Legend :    VFR   Marginal VFR   IFR   Intensive IFR   Very Intensive IFR
Visi :
Ceiling :
>= 8 km
>= 3000ft
5 to 8 km
1000 to 3000 ft
1500m to 5 km
500 to 1000 ft
800 to 1500m
200 to 500 ft
< 800m
< 200 ft
Symbols :   Thunderstorms  Fog  Heavy snow  Heavy precipitations  Wind > 20 kt






- Airport Elevation : 195 ft


KOGB - Orangeburg Municipal

CURRENT METAR :
  • 300922Z AUTO 02016G26KT 7SM -RA OVC014 14/13 A2983 RMK AO2 PK WND 02027/0910 P0004 T01390128

EXPIRED METARs :
  • 300853Z AUTO 03015G27KT 10SM -RA BKN017 BKN026 OVC075 14/13 A2984 RMK AO2 PK WND 03027/0847 SLP105 P0012 60024 T01390128 56030
  • 300753Z AUTO 02018G30KT 6SM RA BR BKN110 14/13 A2985 RMK AO2 PK WND 01030/0753 SLP106 P0007 T01390128

TAF KOGB
Valid from the 30 at 08:00 until the 01 at 06:00 UTC


300810Z 3008/0106 03020G30KT 5SM -SHRA BR BKN025 OVC060
FM301100 01035G45KT 2SM SHRA BR SCT005 OVC007 WS020/01065KT
FM301900 34025G35KT 3SM SHRA BR SCT007 BKN012 WS020/33055KT
KZJX FIR / North America



MET'MAP, your aeronautical weather chart ! - Copyright ORBIFLY December 2007 - Disclaimer

ORBIFLY MET'MAP TEAM :

Programming & Development : Alexandra Zaïnal
Original concept : Baudouin d'Aumeries
Technical & hardware support : Manuel Goepfert
Assistance : Marc-Olivier Méhu




SOURCES & CREDITS :

   NOAA       Earth
Advisory